sensor_id;sensor_type;location;lat;lon;timestamp;pressure;altitude;pressure_sealevel;temperature
64296;BMP280;51082;38.236;15.432;2023-05-19T00:00:54;100869.03;;;17.03
64296;BMP280;51082;38.236;15.432;2023-05-19T00:01:57;100878.06;;;17.07
64296;BMP280;51082;38.236;15.432;2023-05-19T00:03:06;100879.78;;;17.01
64296;BMP280;51082;38.236;15.432;2023-05-19T00:04:09;100875.91;;;17.04
64296;BMP280;51082;38.236;15.432;2023-05-19T00:05:15;100870.06;;;17.02
64296;BMP280;51082;38.236;15.432;2023-05-19T00:06:21;100873.94;;;16.99
64296;BMP280;51082;38.236;15.432;2023-05-19T00:07:30;100878.06;;;16.95
64296;BMP280;51082;38.236;15.432;2023-05-19T00:08:33;100877.03;;;16.96
64296;BMP280;51082;38.236;15.432;2023-05-19T00:09:36;100872.81;;;16.95
64296;BMP280;51082;38.236;15.432;2023-05-19T00:10:39;100868.34;;;16.96
64296;BMP280;51082;38.236;15.432;2023-05-19T00:11:42;100879.09;;;16.94
64296;BMP280;51082;38.236;15.432;2023-05-19T00:12:44;100872.00;;;16.95
64296;BMP280;51082;38.236;15.432;2023-05-19T00:13:47;100880.91;;;16.94
64296;BMP280;51082;38.236;15.432;2023-05-19T00:14:50;100887.22;;;16.93
64296;BMP280;51082;38.236;15.432;2023-05-19T00:15:53;100889.03;;;16.92
64296;BMP280;51082;38.236;15.432;2023-05-19T00:16:55;100892.00;;;16.96
64296;BMP280;51082;38.236;15.432;2023-05-19T00:17:58;100886.88;;;17.01
64296;BMP280;51082;38.236;15.432;2023-05-19T00:19:01;100892.00;;;17.07
64296;BMP280;51082;38.236;15.432;2023-05-19T00:20:05;100899.69;;;17.09
64296;BMP280;51082;38.236;15.432;2023-05-19T00:21:12;100895.25;;;17.09
64296;BMP280;51082;38.236;15.432;2023-05-19T00:22:15;100894.78;;;17.12
64296;BMP280;51082;38.236;15.432;2023-05-19T00:23:18;100898.09;;;17.08
64296;BMP280;51082;38.236;15.432;2023-05-19T00:24:21;100905.66;;;17.04
64296;BMP280;51082;38.236;15.432;2023-05-19T00:25:23;100897.28;;;17.07
64296;BMP280;51082;38.236;15.432;2023-05-19T00:26:26;100898.19;;;17.01
64296;BMP280;51082;38.236;15.432;2023-05-19T00:27:28;100904.25;;;17.02
64296;BMP280;51082;38.236;15.432;2023-05-19T00:28:31;100904.25;;;17.02
64296;BMP280;51082;38.236;15.432;2023-05-19T00:29:32;100901.72;;;17.07
64296;BMP280;51082;38.236;15.432;2023-05-19T00:30:36;100902.22;;;17.04
64296;BMP280;51082;38.236;15.432;2023-05-19T00:31:37;100903.34;;;17.08
64296;BMP280;51082;38.236;15.432;2023-05-19T00:32:40;100908.00;;;17.06
64296;BMP280;51082;38.236;15.432;2023-05-19T00:33:42;100908.59;;;16.96
64296;BMP280;51082;38.236;15.432;2023-05-19T00:34:45;100907.69;;;16.91
64296;BMP280;51082;38.236;15.432;2023-05-19T00:35:48;100905.41;;;16.94
64296;BMP280;51082;38.236;15.432;2023-05-19T00:36:51;100904.25;;;17.02
64296;BMP280;51082;38.236;15.432;2023-05-19T00:37:53;100910.66;;;17.06
64296;BMP280;51082;38.236;15.432;2023-05-19T00:38:57;100904.25;;;17.02
64296;BMP280;51082;38.236;15.432;2023-05-19T00:39:59;100907.56;;;16.97
64296;BMP280;51082;38.236;15.432;2023-05-19T00:41:03;100902.53;;;16.96
64296;BMP280;51082;38.236;15.432;2023-05-19T00:42:05;100905.03;;;16.91
64296;BMP280;51082;38.236;15.432;2023-05-19T00:43:08;100909.72;;;16.89
64296;BMP280;51082;38.236;15.432;2023-05-19T00:44:10;100905.94;;;16.84
64296;BMP280;51082;38.236;15.432;2023-05-19T00:45:12;100905.94;;;16.84
64296;BMP280;51082;38.236;15.432;2023-05-19T00:46:14;100904.34;;;16.83
64296;BMP280;51082;38.236;15.432;2023-05-19T00:47:17;100907.09;;;16.89
64296;BMP280;51082;38.236;15.432;2023-05-19T00:48:19;100915.00;;;16.89
64296;BMP280;51082;38.236;15.432;2023-05-19T00:49:22;100905.03;;;16.91
64296;BMP280;51082;38.236;15.432;2023-05-19T00:50:24;100905.63;;;16.93
64296;BMP280;51082;38.236;15.432;2023-05-19T00:51:28;100912.47;;;16.94
64296;BMP280;51082;38.236;15.432;2023-05-19T00:52:31;100910.31;;;16.91
64296;BMP280;51082;38.236;15.432;2023-05-19T00:53:34;100908.13;;;16.88
64296;BMP280;51082;38.236;15.432;2023-05-19T00:54:37;100905.50;;;16.88
64296;BMP280;51082;38.236;15.432;2023-05-19T00:55:41;100900.78;;;16.90
64296;BMP280;51082;38.236;15.432;2023-05-19T00:56:43;100902.31;;;16.97
64296;BMP280;51082;38.236;15.432;2023-05-19T00:57:46;100903.09;;;16.98
64296;BMP280;51082;38.236;15.432;2023-05-19T00:58:50;100908.38;;;16.98
64296;BMP280;51082;38.236;15.432;2023-05-19T00:59:53;100902.75;;;16.94
64296;BMP280;51082;38.236;15.432;2023-05-19T01:00:57;100912.38;;;17.00
64296;BMP280;51082;38.236;15.432;2023-05-19T01:02:03;100907.38;;;16.99
64296;BMP280;51082;38.236;15.432;2023-05-19T01:03:07;100906.31;;;16.88
64296;BMP280;51082;38.236;15.432;2023-05-19T01:04:11;100900.69;;;16.96
64296;BMP280;51082;38.236;15.432;2023-05-19T01:05:17;100905.16;;;16.96
64296;BMP280;51082;38.236;15.432;2023-05-19T01:06:18;100900.78;;;16.90
64296;BMP280;51082;38.236;15.432;2023-05-19T01:07:22;100913.38;;;16.88
64296;BMP280;51082;38.236;15.432;2023-05-19T01:08:24;100907.56;;;16.85
64296;BMP280;51082;38.236;15.432;2023-05-19T01:09:27;100902.88;;;16.88
64296;BMP280;51082;38.236;15.432;2023-05-19T01:10:32;100902.19;;;16.92
64296;BMP280;51082;38.236;15.432;2023-05-19T01:11:38;100910.41;;;16.96
64296;BMP280;51082;38.236;15.432;2023-05-19T01:12:40;100916.59;;;17.01
64296;BMP280;51082;38.236;15.432;2023-05-19T01:13:43;100921.50;;;16.98
64296;BMP280;51082;38.236;15.432;2023-05-19T01:14:44;100921.28;;;16.99
64296;BMP280;51082;38.236;15.432;2023-05-19T01:16:00;100915.25;;;16.99
64296;BMP280;51082;38.236;15.432;2023-05-19T01:17:10;100911.22;;;16.96
64296;BMP280;51082;38.236;15.432;2023-05-19T01:18:23;100899.91;;;16.96
64296;BMP280;51082;38.236;15.432;2023-05-19T01:19:39;100912.13;;;17.02
64296;BMP280;51082;38.236;15.432;2023-05-19T01:20:52;100910.66;;;17.06
64296;BMP280;51082;38.236;15.432;2023-05-19T01:23:33;100924.47;;;17.01
64296;BMP280;51082;38.236;15.432;2023-05-19T01:26:49;100923.00;;;16.94
64296;BMP280;51082;38.236;15.432;2023-05-19T01:28:19;100920.59;;;16.92
64296;BMP280;51082;38.236;15.432;2023-05-19T01:29:40;100917.75;;;16.94
64296;BMP280;51082;38.236;15.432;2023-05-19T01:30:47;100917.16;;;16.92
64296;BMP280;51082;38.236;15.432;2023-05-19T01:31:54;100928.72;;;16.91
64296;BMP280;51082;38.236;15.432;2023-05-19T01:33:01;100917.75;;;16.94
64296;BMP280;51082;38.236;15.432;2023-05-19T01:34:03;100919.34;;;16.95
64296;BMP280;51082;38.236;15.432;2023-05-19T01:35:08;100925.41;;;16.95
64296;BMP280;51082;38.236;15.432;2023-05-19T01:36:11;100923.69;;;17.01
64296;BMP280;51082;38.236;15.432;2023-05-19T01:37:18;100926.78;;;16.98
64296;BMP280;51082;38.236;15.432;2023-05-19T01:38:21;100939.34;;;16.96
64296;BMP280;51082;38.236;15.432;2023-05-19T01:39:25;100935.13;;;16.95
64296;BMP280;51082;38.236;15.432;2023-05-19T01:40:28;100934.66;;;16.98
64296;BMP280;51082;38.236;15.432;2023-05-19T01:41:31;100939.56;;;17.06
64296;BMP280;51082;38.236;15.432;2023-05-19T01:42:34;100943.34;;;17.10
64296;BMP280;51082;38.236;15.432;2023-05-19T01:43:40;100939.34;;;17.07
64296;BMP280;51082;38.236;15.432;2023-05-19T01:44:43;100934.91;;;17.08
64296;BMP280;51082;38.236;15.432;2023-05-19T01:45:48;100937.31;;;17.09
64296;BMP280;51082;38.236;15.432;2023-05-19T01:46:51;100945.31;;;17.14
64296;BMP280;51082;38.236;15.432;2023-05-19T01:47:56;100942.44;;;17.16
64296;BMP280;51082;38.236;15.432;2023-05-19T01:48:58;100938.81;;;17.17
64296;BMP280;51082;38.236;15.432;2023-05-19T01:50:02;100940.19;;;17.20
64296;BMP280;51082;38.236;15.432;2023-05-19T01:51:04;100935.16;;;17.18
64296;BMP280;51082;38.236;15.432;2023-05-19T01:52:09;100938.31;;;17.20
64296;BMP280;51082;38.236;15.432;2023-05-19T01:53:11;100937.78;;;17.18
64296;BMP280;51082;38.236;15.432;2023-05-19T01:54:14;100944.06;;;17.17
64296;BMP280;51082;38.236;15.432;2023-05-19T01:55:15;100945.88;;;17.16
64296;BMP280;51082;38.236;15.432;2023-05-19T01:56:25;100949.78;;;17.14
64296;BMP280;51082;38.236;15.432;2023-05-19T01:57:33;100942.94;;;17.13
64296;BMP280;51082;38.236;15.432;2023-05-19T01:58:43;100953.44;;;17.13
64296;BMP280;51082;38.236;15.432;2023-05-19T01:59:52;100958.22;;;17.16
64296;BMP280;51082;38.236;15.432;2023-05-19T02:01:08;100956.72;;;17.20
64296;BMP280;51082;38.236;15.432;2023-05-19T02:02:18;100960.16;;;17.21
64296;BMP280;51082;38.236;15.432;2023-05-19T02:03:40;100950.25;;;17.23
64296;BMP280;51082;38.236;15.432;2023-05-19T02:04:49;100955.28;;;17.24
64296;BMP280;51082;38.236;15.432;2023-05-19T02:06:00;100961.31;;;17.25
64296;BMP280;51082;38.236;15.432;2023-05-19T02:07:09;100958.94;;;17.23
64296;BMP280;51082;38.236;15.432;2023-05-19T02:08:19;100959.97;;;17.22
64296;BMP280;51082;38.236;15.432;2023-05-19T02:09:33;100961.47;;;17.18
64296;BMP280;51082;38.236;15.432;2023-05-19T02:10:40;100969.22;;;17.13
64296;BMP280;51082;38.236;15.432;2023-05-19T02:11:53;100968.19;;;17.14
64296;BMP280;51082;38.236;15.432;2023-05-19T02:13:00;100963.97;;;17.13
64296;BMP280;51082;38.236;15.432;2023-05-19T02:14:08;100957.41;;;17.15
64296;BMP280;51082;38.236;15.432;2023-05-19T02:15:16;100959.50;;;17.13
64296;BMP280;51082;38.236;15.432;2023-05-19T02:16:22;100953.75;;;17.16
64296;BMP280;51082;38.236;15.432;2023-05-19T02:17:29;100966.13;;;17.16
64296;BMP280;51082;38.236;15.432;2023-05-19T02:18:33;100969.13;;;17.20
64296;BMP280;51082;38.236;15.432;2023-05-19T02:19:38;100973.56;;;17.19
64296;BMP280;51082;38.236;15.432;2023-05-19T02:20:39;100968.19;;;17.14
64296;BMP280;51082;38.236;15.432;2023-05-19T02:21:42;100964.50;;;17.15
64296;BMP280;51082;38.236;15.432;2023-05-19T02:22:44;100964.16;;;17.11
64296;BMP280;51082;38.236;15.432;2023-05-19T02:23:47;100960.75;;;17.11
64296;BMP280;51082;38.236;15.432;2023-05-19T02:24:49;100952.84;;;17.11
64296;BMP280;51082;38.236;15.432;2023-05-19T02:25:52;100949.78;;;17.14
64296;BMP280;51082;38.236;15.432;2023-05-19T02:26:54;100955.41;;;17.17
64296;BMP280;51082;38.236;15.432;2023-05-19T02:27:57;100958.22;;;17.16
64296;BMP280;51082;38.236;15.432;2023-05-19T02:29:04;100957.91;;;17.12
64296;BMP280;51082;38.236;15.432;2023-05-19T02:30:08;100941.28;;;17.12
64296;BMP280;51082;38.236;15.432;2023-05-19T02:31:10;100945.97;;;17.10
64296;BMP280;51082;38.236;15.432;2023-05-19T02:32:14;100946.69;;;17.17
64296;BMP280;51082;38.236;15.432;2023-05-19T02:33:16;100948.50;;;17.16
64296;BMP280;51082;38.236;15.432;2023-05-19T02:34:20;100939.59;;;17.17
64296;BMP280;51082;38.236;15.432;2023-05-19T02:35:22;100940.94;;;17.20
64296;BMP280;51082;38.236;15.432;2023-05-19T02:36:25;100938.81;;;17.17
64296;BMP280;51082;38.236;15.432;2023-05-19T02:37:27;100937.78;;;17.18
64296;BMP280;51082;38.236;15.432;2023-05-19T02:38:29;100935.25;;;17.23
64296;BMP280;51082;38.236;15.432;2023-05-19T02:39:31;100940.25;;;17.25
64296;BMP280;51082;38.236;15.432;2023-05-19T02:40:35;100932.63;;;17.23
64296;BMP280;51082;38.236;15.432;2023-05-19T02:41:37;100929.44;;;17.21
64296;BMP280;51082;38.236;15.432;2023-05-19T02:42:39;100924.97;;;17.22
64296;BMP280;51082;38.236;15.432;2023-05-19T02:43:41;100929.44;;;17.21
64296;BMP280;51082;38.236;15.432;2023-05-19T02:44:44;100933.31;;;17.19
64296;BMP280;51082;38.236;15.432;2023-05-19T02:45:46;100923.03;;;17.17
64296;BMP280;51082;38.236;15.432;2023-05-19T02:46:49;100922.53;;;17.20
64296;BMP280;51082;38.236;15.432;2023-05-19T02:47:52;100919.38;;;17.18
64296;BMP280;51082;38.236;15.432;2023-05-19T02:48:55;100915.13;;;17.17
64296;BMP280;51082;38.236;15.432;2023-05-19T02:49:57;100932.41;;;17.13
64296;BMP280;51082;38.236;15.432;2023-05-19T02:52:06;100914.69;;;17.08
64296;BMP280;51082;38.236;15.432;2023-05-19T02:53:09;100904.97;;;17.09
64296;BMP280;51082;38.236;15.432;2023-05-19T02:54:10;100904.97;;;17.09
64296;BMP280;51082;38.236;15.432;2023-05-19T02:55:13;100908.38;;;17.09
64296;BMP280;51082;38.236;15.432;2023-05-19T02:56:17;100914.00;;;17.13
64296;BMP280;51082;38.236;15.432;2023-05-19T02:57:19;100915.00;;;17.12
64296;BMP280;51082;38.236;15.432;2023-05-19T02:58:21;100912.59;;;17.10
64296;BMP280;51082;38.236;15.432;2023-05-19T02:59:28;100910.22;;;17.09
64296;BMP280;51082;38.236;15.432;2023-05-19T03:00:30;100911.03;;;17.09
64296;BMP280;51082;38.236;15.432;2023-05-19T03:01:33;100906.53;;;17.10
64296;BMP280;51082;38.236;15.432;2023-05-19T03:02:34;100906.09;;;17.13
64296;BMP280;51082;38.236;15.432;2023-05-19T03:03:39;100905.59;;;17.16
64296;BMP280;51082;38.236;15.432;2023-05-19T03:04:41;100914.78;;;17.13
64296;BMP280;51082;38.236;15.432;2023-05-19T03:05:47;100922.44;;;17.15
64296;BMP280;51082;38.236;15.432;2023-05-19T03:06:48;100919.78;;;17.15
64296;BMP280;51082;38.236;15.432;2023-05-19T03:07:51;100918.66;;;17.11
64296;BMP280;51082;38.236;15.432;2023-05-19T03:08:53;100911.03;;;17.09
64296;BMP280;51082;38.236;15.432;2023-05-19T03:09:55;100907.78;;;17.07
64296;BMP280;51082;38.236;15.432;2023-05-19T03:10:57;100898.91;;;17.08
64296;BMP280;51082;38.236;15.432;2023-05-19T03:12:00;100893.94;;;17.12
64296;BMP280;51082;38.236;15.432;2023-05-19T03:13:04;100891.91;;;17.14
64296;BMP280;51082;38.236;15.432;2023-05-19T03:14:07;100899.00;;;17.13
64296;BMP280;51082;38.236;15.432;2023-05-19T03:15:10;100899.69;;;17.09
64296;BMP280;51082;38.236;15.432;2023-05-19T03:16:15;100903.78;;;17.05
64296;BMP280;51082;38.236;15.432;2023-05-19T03:17:16;100897.50;;;17.06
64296;BMP280;51082;38.236;15.432;2023-05-19T03:18:20;100892.84;;;17.08
64296;BMP280;51082;38.236;15.432;2023-05-19T03:19:23;100888.81;;;17.05
64296;BMP280;51082;38.236;15.432;2023-05-19T03:20:26;100885.84;;;17.02
64296;BMP280;51082;38.236;15.432;2023-05-19T03:21:27;100890.06;;;17.03
64296;BMP280;51082;38.236;15.432;2023-05-19T03:22:32;100878.66;;;17.09
64296;BMP280;51082;38.236;15.432;2023-05-19T03:23:34;100894.44;;;17.09
64296;BMP280;51082;38.236;15.432;2023-05-19T03:24:37;100894.53;;;17.02
64296;BMP280;51082;38.236;15.432;2023-05-19T03:25:38;100889.16;;;16.97
64296;BMP280;51082;38.236;15.432;2023-05-19T03:26:41;100887.56;;;16.96
64296;BMP280;51082;38.236;15.432;2023-05-19T03:27:43;100876.81;;;16.98
64296;BMP280;51082;38.236;15.432;2023-05-19T03:28:46;100862.97;;;17.02
64296;BMP280;51082;38.236;15.432;2023-05-19T03:29:47;100867.53;;;17.07
64296;BMP280;51082;38.236;15.432;2023-05-19T03:30:50;100869.16;;;17.08
64296;BMP280;51082;38.236;15.432;2023-05-19T03:31:52;100877.06;;;17.08
64296;BMP280;51082;38.236;15.432;2023-05-19T03:32:55;100863.88;;;16.96
64296;BMP280;51082;38.236;15.432;2023-05-19T03:33:57;100866.59;;;16.90
64296;BMP280;51082;38.236;15.432;2023-05-19T03:35:01;100869.25;;;16.90
64296;BMP280;51082;38.236;15.432;2023-05-19T03:36:03;100868.25;;;16.91
64296;BMP280;51082;38.236;15.432;2023-05-19T03:37:05;100857.03;;;16.95
64296;BMP280;51082;38.236;15.432;2023-05-19T03:38:10;100854.88;;;17.04
64296;BMP280;51082;38.236;15.432;2023-05-19T03:39:12;100863.06;;;17.07
64296;BMP280;51082;38.236;15.432;2023-05-19T03:40:15;100870.16;;;17.07
64296;BMP280;51082;38.236;15.432;2023-05-19T03:41:18;100865.41;;;17.04
64296;BMP280;51082;38.236;15.432;2023-05-19T03:42:21;100871.19;;;17.06
64296;BMP280;51082;38.236;15.432;2023-05-19T03:43:23;100872.81;;;17.07
64296;BMP280;51082;38.236;15.432;2023-05-19T03:44:25;100867.34;;;17.08
64296;BMP280;51082;38.236;15.432;2023-05-19T03:45:27;100866.84;;;17.11
64296;BMP280;51082;38.236;15.432;2023-05-19T03:46:29;100860.09;;;17.15
64296;BMP280;51082;38.236;15.432;2023-05-19T03:47:31;100856.00;;;17.20
64296;BMP280;51082;38.236;15.432;2023-05-19T03:48:34;100854.94;;;17.21
64296;BMP280;51082;38.236;15.432;2023-05-19T03:49:35;100857.84;;;17.19
64296;BMP280;51082;38.236;15.432;2023-05-19T03:50:39;100861.13;;;17.14
64296;BMP280;51082;38.236;15.432;2023-05-19T03:51:41;100867.66;;;17.12
64296;BMP280;51082;38.236;15.432;2023-05-19T03:52:44;100864.09;;;17.06
64296;BMP280;51082;38.236;15.432;2023-05-19T03:53:48;100855.88;;;17.03
64296;BMP280;51082;38.236;15.432;2023-05-19T03:54:50;100855.31;;;17.01
64296;BMP280;51082;38.236;15.432;2023-05-19T03:55:53;100857.41;;;16.99
64296;BMP280;51082;38.236;15.432;2023-05-19T03:56:57;100846.50;;;16.95
64296;BMP280;51082;38.236;15.432;2023-05-19T03:57:59;100845.72;;;16.95
64296;BMP280;51082;38.236;15.432;2023-05-19T03:59:02;100842.28;;;16.94
64296;BMP280;51082;38.236;15.432;2023-05-19T04:00:07;100839.00;;;16.99
64296;BMP280;51082;38.236;15.432;2023-05-19T04:01:11;100835.41;;;17.05
64296;BMP280;51082;38.236;15.432;2023-05-19T04:02:12;100850.75;;;17.08
64296;BMP280;51082;38.236;15.432;2023-05-19T04:03:15;100858.06;;;17.06
64296;BMP280;51082;38.236;15.432;2023-05-19T04:04:17;100849.63;;;17.04
64296;BMP280;51082;38.236;15.432;2023-05-19T04:05:19;100846.50;;;17.07
64296;BMP280;51082;38.236;15.432;2023-05-19T04:06:22;100849.63;;;17.04
64296;BMP280;51082;38.236;15.432;2023-05-19T04:07:25;100832.78;;;17.05
64296;BMP280;51082;38.236;15.432;2023-05-19T04:08:27;100836.56;;;17.09
64296;BMP280;51082;38.236;15.432;2023-05-19T04:09:30;100828.41;;;17.10
64296;BMP280;51082;38.236;15.432;2023-05-19T04:10:32;100831.41;;;17.14
64296;BMP280;51082;38.236;15.432;2023-05-19T04:11:35;100856.72;;;17.03
64296;BMP280;51082;38.236;15.432;2023-05-19T04:12:37;100853.72;;;17.00
64296;BMP280;51082;38.236;15.432;2023-05-19T04:13:40;100843.19;;;17.00
64296;BMP280;51082;38.236;15.432;2023-05-19T04:14:41;100830.63;;;17.02
64296;BMP280;51082;38.236;15.432;2023-05-19T04:15:44;100854.50;;;17.00
64296;BMP280;51082;38.236;15.432;2023-05-19T04:16:46;100875.22;;;16.97
64296;BMP280;51082;38.236;15.432;2023-05-19T04:17:48;100844.22;;;17.10
64296;BMP280;51082;38.236;15.432;2023-05-19T04:18:50;100887.78;;;17.06
64296;BMP280;51082;38.236;15.432;2023-05-19T04:19:53;100894.31;;;17.04
64296;BMP280;51082;38.236;15.432;2023-05-19T04:20:55;100878.06;;;17.07
64296;BMP280;51082;38.236;15.432;2023-05-19T04:21:59;100852.91;;;17.11
64296;BMP280;51082;38.236;15.432;2023-05-19T04:23:01;100852.09;;;17.22
64296;BMP280;51082;38.236;15.432;2023-05-19T04:24:04;100871.75;;;17.31
64296;BMP280;51082;38.236;15.432;2023-05-19T04:25:07;100887.44;;;17.26
64296;BMP280;51082;38.236;15.432;2023-05-19T04:26:09;100906.75;;;17.20
64296;BMP280;51082;38.236;15.432;2023-05-19T04:27:12;100880.56;;;17.25
64296;BMP280;51082;38.236;15.432;2023-05-19T04:28:16;100907.44;;;17.39
64296;BMP280;51082;38.236;15.432;2023-05-19T04:29:17;100896.22;;;17.43
64296;BMP280;51082;38.236;15.432;2023-05-19T04:30:20;100877.44;;;17.52
64296;BMP280;51082;38.236;15.432;2023-05-19T04:31:22;100881.09;;;17.51
64296;BMP280;51082;38.236;15.432;2023-05-19T04:32:25;100888.19;;;17.62
64296;BMP280;51082;38.236;15.432;2023-05-19T04:33:26;100889.28;;;17.66
64296;BMP280;51082;38.236;15.432;2023-05-19T04:34:29;100900.09;;;17.64
64296;BMP280;51082;38.236;15.432;2023-05-19T04:35:30;100901.91;;;17.64
64296;BMP280;51082;38.236;15.432;2023-05-19T04:36:33;100913.69;;;17.61
64296;BMP280;51082;38.236;15.432;2023-05-19T04:37:37;100898.22;;;17.65
64296;BMP280;51082;38.236;15.432;2023-05-19T04:38:40;100889.44;;;17.71
64296;BMP280;51082;38.236;15.432;2023-05-19T04:39:42;100913.09;;;17.83
64296;BMP280;51082;38.236;15.432;2023-05-19T04:40:45;100934.34;;;17.93
64296;BMP280;51082;38.236;15.432;2023-05-19T04:41:50;100940.53;;;17.98
64296;BMP280;51082;38.236;15.432;2023-05-19T04:42:54;100933.06;;;17.95
64296;BMP280;51082;38.236;15.432;2023-05-19T04:43:55;100916.81;;;17.98
64296;BMP280;51082;38.236;15.432;2023-05-19T04:44:58;100924.72;;;17.98
64296;BMP280;51082;38.236;15.432;2023-05-19T04:46:00;100924.47;;;18.00
64296;BMP280;51082;38.236;15.432;2023-05-19T04:47:06;100921.59;;;18.01
64296;BMP280;51082;38.236;15.432;2023-05-19T04:48:08;100915.16;;;18.09
64296;BMP280;51082;38.236;15.432;2023-05-19T04:49:12;100918.69;;;18.15
64296;BMP280;51082;38.236;15.432;2023-05-19T04:50:14;100962.75;;;18.19
64296;BMP280;51082;38.236;15.432;2023-05-19T04:51:17;100939.97;;;18.25
64296;BMP280;51082;38.236;15.432;2023-05-19T04:52:19;100953.94;;;18.25
64296;BMP280;51082;38.236;15.432;2023-05-19T04:53:23;100948.59;;;18.37
64296;BMP280;51082;38.236;15.432;2023-05-19T04:54:25;100949.75;;;18.41
64296;BMP280;51082;38.236;15.432;2023-05-19T04:55:28;100955.56;;;18.43
64296;BMP280;51082;38.236;15.432;2023-05-19T04:56:30;100957.19;;;18.44
64296;BMP280;51082;38.236;15.432;2023-05-19T04:57:33;100957.72;;;18.46
64296;BMP280;51082;38.236;15.432;2023-05-19T04:58:34;100981.22;;;18.48
64296;BMP280;51082;38.236;15.432;2023-05-19T04:59:41;100951.59;;;18.57
64296;BMP280;51082;38.236;15.432;2023-05-19T05:00:43;100948.88;;;18.69
64296;BMP280;51082;38.236;15.432;2023-05-19T05:01:48;100956.97;;;18.79
64296;BMP280;51082;38.236;15.432;2023-05-19T05:02:53;100980.94;;;18.77
64296;BMP280;51082;38.236;15.432;2023-05-19T05:03:58;100971.50;;;18.82
64296;BMP280;51082;38.236;15.432;2023-05-19T05:05:04;100991.19;;;18.91
64296;BMP280;51082;38.236;15.432;2023-05-19T05:06:07;100995.97;;;18.94
64296;BMP280;51082;38.236;15.432;2023-05-19T05:07:09;100987.19;;;19.05
64296;BMP280;51082;38.236;15.432;2023-05-19T05:08:12;101017.25;;;19.04
64296;BMP280;51082;38.236;15.432;2023-05-19T05:09:20;101007.75;;;19.20
64296;BMP280;51082;38.236;15.432;2023-05-19T05:10:23;101009.31;;;19.21
64296;BMP280;51082;38.236;15.432;2023-05-19T05:11:25;101030.31;;;19.49
64296;BMP280;51082;38.236;15.432;2023-05-19T05:12:28;101043.88;;;19.74
64296;BMP280;51082;38.236;15.432;2023-05-19T05:13:30;101036.31;;;19.83
64296;BMP280;51082;38.236;15.432;2023-05-19T05:14:34;101046.28;;;19.76
64296;BMP280;51082;38.236;15.432;2023-05-19T05:15:36;101034.59;;;19.72
64296;BMP280;51082;38.236;15.432;2023-05-19T05:16:40;101049.88;;;19.70
64296;BMP280;51082;38.236;15.432;2023-05-19T05:17:42;101038.53;;;19.69
64296;BMP280;51082;38.236;15.432;2023-05-19T05:18:46;101042.09;;;19.80
64296;BMP280;51082;38.236;15.432;2023-05-19T05:19:48;101032.22;;;19.92
64296;BMP280;51082;38.236;15.432;2023-05-19T05:20:52;101031.53;;;20.02
64296;BMP280;51082;38.236;15.432;2023-05-19T05:21:55;101033.25;;;20.13
64296;BMP280;51082;38.236;15.432;2023-05-19T05:22:58;101043.25;;;20.33
64296;BMP280;51082;38.236;15.432;2023-05-19T05:24:03;101052.75;;;20.34
64296;BMP280;51082;38.236;15.432;2023-05-19T05:25:10;101058.97;;;20.45
64296;BMP280;51082;38.236;15.432;2023-05-19T05:26:16;101052.91;;;20.44
64296;BMP280;51082;38.236;15.432;2023-05-19T05:27:20;101063.75;;;20.48
64296;BMP280;51082;38.236;15.432;2023-05-19T05:28:21;101064.03;;;20.46
64296;BMP280;51082;38.236;15.432;2023-05-19T05:29:24;101054.22;;;20.47
64296;BMP280;51082;38.236;15.432;2023-05-19T05:30:26;101046.13;;;20.53
64296;BMP280;51082;38.236;15.432;2023-05-19T05:31:28;101044.31;;;20.59
64296;BMP280;51082;38.236;15.432;2023-05-19T05:32:30;101051.75;;;20.62
64296;BMP280;51082;38.236;15.432;2023-05-19T05:33:33;101044.38;;;20.69
64296;BMP280;51082;38.236;15.432;2023-05-19T05:34:35;101051.88;;;20.77
64296;BMP280;51082;38.236;15.432;2023-05-19T05:35:39;101052.16;;;20.81
64296;BMP280;51082;38.236;15.432;2023-05-19T05:36:41;101053.84;;;20.92
64296;BMP280;51082;38.236;15.432;2023-05-19T05:37:44;101052.88;;;21.03
64296;BMP280;51082;38.236;15.432;2023-05-19T05:38:45;101057.19;;;21.14
64296;BMP280;51082;38.236;15.432;2023-05-19T05:39:48;101065.44;;;21.23
64296;BMP280;51082;38.236;15.432;2023-05-19T05:40:52;101064.75;;;21.37
64296;BMP280;51082;38.236;15.432;2023-05-19T05:41:55;101072.03;;;21.57
64296;BMP280;51082;38.236;15.432;2023-05-19T05:42:56;101070.97;;;21.58
64296;BMP280;51082;38.236;15.432;2023-05-19T05:44:00;101078.13;;;21.63
64296;BMP280;51082;38.236;15.432;2023-05-19T05:45:06;101087.22;;;21.77
64296;BMP280;51082;38.236;15.432;2023-05-19T05:46:14;101098.91;;;21.86
64296;BMP280;51082;38.236;15.432;2023-05-19T05:47:16;101089.41;;;21.95
64296;BMP280;51082;38.236;15.432;2023-05-19T05:48:21;101089.44;;;22.00
64296;BMP280;51082;38.236;15.432;2023-05-19T05:49:24;101100.13;;;22.16
64296;BMP280;51082;38.236;15.432;2023-05-19T05:50:30;101102.78;;;22.21
64296;BMP280;51082;38.236;15.432;2023-05-19T05:51:32;101101.75;;;22.32
64296;BMP280;51082;38.236;15.432;2023-05-19T05:52:36;101098.56;;;22.35
64296;BMP280;51082;38.236;15.432;2023-05-19T05:53:43;101096.97;;;22.34
64296;BMP280;51082;38.236;15.432;2023-05-19T05:54:47;101094.31;;;22.34
64296;BMP280;51082;38.236;15.432;2023-05-19T05:55:51;101090.34;;;22.36
64296;BMP280;51082;38.236;15.432;2023-05-19T05:57:03;101093.28;;;22.40
64296;BMP280;51082;38.236;15.432;2023-05-19T05:58:04;101107.06;;;22.37
64296;BMP280;51082;38.236;15.432;2023-05-19T05:59:11;101074.69;;;22.40
64296;BMP280;51082;38.236;15.432;2023-05-19T06:00:15;101047.06;;;22.26
64296;BMP280;51082;38.236;15.432;2023-05-19T06:01:19;101056.63;;;22.32
64296;BMP280;51082;38.236;15.432;2023-05-19T06:02:24;101088.81;;;22.96